createdAt,value
2022-12-20T00:01:27.790Z,90.34
2022-12-20T00:03:56.696Z,90.50
2022-12-20T00:06:24.460Z,90.56
2022-12-20T00:08:55.995Z,90.63
2022-12-20T00:11:23.571Z,90.74
2022-12-20T00:13:50.797Z,90.84
2022-12-20T00:16:20.194Z,90.67
2022-12-20T00:18:47.641Z,90.91
2022-12-20T00:21:15.220Z,90.75
2022-12-20T00:23:42.322Z,90.64
2022-12-20T00:26:08.900Z,90.72
2022-12-20T00:28:36.858Z,90.79
2022-12-20T00:31:04.788Z,90.86
2022-12-20T00:33:32.345Z,90.84
2022-12-20T00:36:00.694Z,90.85
2022-12-20T00:38:27.916Z,90.71
2022-12-20T00:41:06.735Z,90.71
2022-12-20T00:43:34.271Z,90.85
2022-12-20T00:46:01.910Z,90.84
2022-12-20T00:48:30.603Z,91.01
2022-12-20T00:51:05.049Z,90.85
2022-12-20T00:53:32.270Z,90.93
2022-12-20T00:55:59.153Z,90.80
2022-12-20T00:58:26.942Z,90.94
2022-12-20T01:00:56.795Z,90.85
2022-12-20T01:03:25.304Z,90.90
2022-12-20T01:05:54.430Z,90.78
2022-12-20T01:08:22.060Z,90.72
2022-12-20T01:11:17.883Z,90.73
2022-12-20T01:13:47.344Z,90.70
2022-12-20T01:16:15.829Z,90.78
2022-12-20T01:18:42.543Z,90.71
2022-12-20T01:21:11.424Z,90.66
2022-12-20T01:23:38.951Z,90.82
2022-12-20T01:26:09.378Z,90.89
2022-12-20T01:28:36.660Z,90.81
2022-12-20T01:31:07.995Z,90.74
2022-12-20T01:33:35.752Z,90.83
2022-12-20T01:36:05.865Z,90.96
2022-12-20T01:38:33.474Z,90.80
2022-12-20T01:41:00.351Z,90.84
2022-12-20T01:43:52.284Z,90.57
2022-12-20T01:46:21.391Z,90.78
2022-12-20T01:48:56.478Z,90.92
2022-12-20T01:51:24.651Z,91.06
2022-12-20T01:53:57.440Z,91.15
2022-12-20T01:56:24.359Z,91.16
2022-12-20T01:58:53.241Z,91.24
2022-12-20T02:01:22.857Z,91.28
2022-12-20T02:03:51.349Z,91.37
2022-12-20T02:06:20.753Z,91.04
2022-12-20T02:08:51.104Z,91.26
2022-12-20T02:11:29.510Z,91.30
2022-12-20T02:14:35.352Z,91.44
2022-12-20T02:17:29.690Z,91.34
2022-12-20T02:20:53.545Z,91.40
2022-12-20T02:23:46.255Z,91.31
2022-12-20T02:26:12.775Z,91.35
2022-12-20T02:29:16.723Z,91.17
2022-12-20T02:31:56.225Z,91.43
2022-12-20T02:34:27.807Z,91.50
2022-12-20T02:36:54.578Z,91.76
2022-12-20T02:39:23.802Z,91.73
2022-12-20T02:41:57.461Z,91.91
2022-12-20T02:44:47.021Z,91.82
2022-12-20T02:47:19.915Z,91.84
2022-12-20T02:49:49.736Z,91.92
2022-12-20T02:52:21.254Z,91.87
2022-12-20T02:54:48.740Z,91.90
2022-12-20T02:57:21.517Z,91.95
2022-12-20T03:00:10.872Z,92.24
2022-12-20T03:02:57.350Z,92.18
2022-12-20T03:05:27.281Z,92.15
2022-12-20T03:07:55.336Z,92.13
2022-12-20T03:10:23.689Z,92.13
2022-12-20T03:12:50.459Z,92.28
2022-12-20T03:15:17.182Z,92.39
2022-12-20T03:17:43.878Z,92.40
2022-12-20T03:20:11.440Z,92.59
2022-12-20T03:22:39.082Z,92.74
2022-12-20T03:25:06.436Z,92.66
2022-12-20T03:27:33.650Z,92.65
2022-12-20T03:30:03.704Z,92.79
2022-12-20T03:32:30.487Z,92.57
2022-12-20T03:34:57.197Z,92.92
2022-12-20T03:37:24.091Z,93.22
2022-12-20T03:39:50.809Z,93.05
2022-12-20T03:42:18.793Z,93.11
2022-12-20T03:44:45.589Z,92.88
2022-12-20T03:47:12.341Z,93.13
2022-12-20T03:49:39.024Z,93.08
2022-12-20T03:52:05.990Z,93.23
2022-12-20T03:54:32.813Z,93.23
2022-12-20T03:56:59.414Z,93.26
2022-12-20T03:59:26.134Z,93.33
2022-12-20T04:01:53.102Z,93.41
2022-12-20T04:04:19.878Z,93.47
2022-12-20T04:06:46.592Z,93.47
2022-12-20T04:09:13.212Z,93.56
2022-12-20T04:11:39.965Z,93.56
2022-12-20T04:14:06.884Z,93.53
2022-12-20T04:16:34.242Z,93.84
2022-12-20T04:19:01.095Z,93.84
2022-12-20T04:21:34.417Z,93.72
2022-12-20T04:24:03.184Z,93.95
2022-12-20T04:26:30.140Z,93.87
2022-12-20T04:28:56.852Z,93.90
2022-12-20T04:31:24.540Z,94.14
2022-12-20T04:33:51.841Z,94.21
2022-12-20T04:36:18.703Z,94.17
2022-12-20T04:38:45.410Z,94.41
2022-12-20T04:41:22.477Z,94.47
2022-12-20T04:43:55.672Z,94.36
2022-12-20T04:46:23.871Z,94.57
2022-12-20T04:48:59.368Z,94.55
2022-12-20T04:51:27.922Z,94.63
2022-12-20T04:53:55.153Z,94.57
2022-12-20T04:56:24.892Z,94.73
2022-12-20T04:58:54.025Z,94.82
2022-12-20T05:01:21.392Z,94.53
2022-12-20T05:03:49.524Z,94.62
2022-12-20T05:06:17.269Z,95.18
2022-12-20T05:08:44.029Z,94.87
2022-12-20T05:11:11.381Z,94.87
2022-12-20T05:13:38.112Z,94.96
2022-12-20T05:16:05.310Z,94.98
2022-12-20T05:18:32.527Z,94.92
2022-12-20T05:21:19.281Z,95.04
2022-12-20T05:24:05.752Z,94.96
2022-12-20T05:26:36.531Z,94.78
2022-12-20T05:29:04.355Z,94.53
2022-12-20T05:31:31.905Z,94.62
2022-12-20T05:33:58.827Z,94.44
2022-12-20T05:36:25.493Z,94.42
2022-12-20T05:38:52.526Z,94.56
2022-12-20T05:41:21.260Z,94.74
2022-12-20T05:43:47.989Z,94.47
2022-12-20T05:46:14.623Z,94.61
2022-12-20T05:48:41.371Z,94.43
2022-12-20T05:51:08.235Z,94.45
2022-12-20T05:53:34.881Z,94.54
2022-12-20T05:56:01.739Z,94.55
2022-12-20T05:58:28.932Z,94.75
2022-12-20T06:00:56.342Z,94.64
2022-12-20T06:03:23.339Z,94.77
2022-12-20T06:05:50.080Z,94.86
2022-12-20T06:08:16.785Z,94.82
2022-12-20T06:10:43.703Z,94.92
2022-12-20T06:13:11.256Z,94.91
2022-12-20T06:15:38.575Z,94.71
2022-12-20T06:18:06.312Z,94.85
2022-12-20T06:20:34.612Z,94.92
2022-12-20T06:23:02.171Z,95.04
2022-12-20T06:25:28.887Z,94.91
2022-12-20T06:28:00.570Z,94.84
2022-12-20T06:30:33.438Z,94.99
2022-12-20T06:33:02.629Z,95.09
2022-12-20T06:35:30.339Z,94.82
2022-12-20T06:37:57.131Z,94.87
2022-12-20T06:40:23.947Z,94.76
2022-12-20T06:42:50.578Z,94.87
2022-12-20T06:45:17.342Z,95.06
2022-12-20T06:47:44.709Z,94.86
2022-12-20T06:50:11.725Z,94.91
2022-12-20T06:52:38.408Z,95.05
2022-12-20T06:55:05.446Z,94.99
2022-12-20T06:57:33.199Z,94.97
2022-12-20T07:00:00.203Z,94.79
2022-12-20T07:02:27.873Z,94.83
2022-12-20T07:04:55.301Z,95.13
2022-12-20T07:07:22.100Z,94.94
2022-12-20T07:09:49.013Z,94.99
2022-12-20T07:12:15.803Z,95.07
2022-12-20T07:14:42.558Z,94.89
2022-12-20T07:17:09.660Z,94.87
2022-12-20T07:19:36.598Z,95.14
2022-12-20T07:22:04.580Z,95.30
2022-12-20T07:24:31.924Z,95.18
2022-12-20T07:26:59.189Z,95.41
2022-12-20T07:29:25.916Z,95.39
2022-12-20T07:31:53.163Z,94.97
2022-12-20T07:34:20.127Z,95.14
2022-12-20T07:36:47.120Z,95.10
2022-12-20T07:39:13.950Z,95.22
2022-12-20T07:41:40.619Z,95.19
2022-12-20T07:44:07.445Z,95.54
2022-12-20T07:46:34.773Z,95.09
2022-12-20T07:49:01.698Z,95.32
2022-12-20T07:51:31.637Z,95.19
2022-12-20T07:54:03.229Z,95.41
2022-12-20T07:56:36.054Z,95.41
2022-12-20T07:59:10.696Z,95.42
2022-12-20T08:01:38.057Z,95.36
2022-12-20T08:04:11.342Z,95.17
2022-12-20T08:06:39.280Z,95.51
2022-12-20T08:09:07.268Z,95.52
2022-12-20T08:11:37.104Z,95.51
2022-12-20T08:14:07.032Z,95.45
2022-12-20T08:16:34.308Z,95.44
2022-12-20T08:19:01.148Z,95.44
2022-12-20T08:21:29.231Z,95.15
2022-12-20T08:23:56.727Z,95.43
2022-12-20T08:26:23.503Z,95.31
2022-12-20T08:28:50.258Z,95.42
2022-12-20T08:31:17.046Z,95.19
2022-12-20T08:33:43.854Z,95.18
2022-12-20T08:36:12.651Z,95.07
2022-12-20T08:38:39.969Z,95.18
2022-12-20T08:41:11.079Z,94.98
2022-12-20T08:43:38.691Z,95.00
2022-12-20T08:46:07.160Z,95.06
2022-12-20T08:48:34.197Z,95.00
2022-12-20T08:51:03.812Z,95.00
2022-12-20T08:53:31.280Z,94.96
2022-12-20T08:56:05.443Z,94.65
2022-12-20T08:58:32.443Z,94.47
2022-12-20T09:01:06.612Z,94.46
2022-12-20T09:03:35.291Z,94.53
2022-12-20T09:06:06.717Z,94.43
2022-12-20T09:08:35.143Z,94.30
2022-12-20T09:11:06.896Z,94.04
2022-12-20T09:13:39.508Z,94.02
2022-12-20T09:16:11.246Z,93.86
2022-12-20T09:18:37.900Z,93.56
2022-12-20T09:21:06.657Z,93.73
2022-12-20T09:23:35.253Z,93.43
2022-12-20T09:26:07.715Z,93.51
2022-12-20T09:28:34.691Z,93.18
2022-12-20T09:31:03.296Z,93.00
2022-12-20T09:33:31.848Z,92.87
2022-12-20T09:35:59.496Z,92.99
2022-12-20T09:38:26.915Z,92.70
2022-12-20T09:40:56.979Z,92.71
2022-12-20T09:43:24.327Z,92.55
2022-12-20T09:45:53.875Z,92.16
2022-12-20T09:48:25.532Z,92.35
2022-12-20T09:51:10.250Z,91.95
2022-12-20T09:53:52.184Z,91.71
2022-12-20T09:56:30.248Z,91.62
2022-12-20T09:59:12.790Z,91.78
2022-12-20T10:01:43.290Z,91.43
2022-12-20T10:04:39.982Z,91.16
2022-12-20T10:07:24.912Z,91.15
2022-12-20T10:10:14.604Z,91.41
2022-12-20T10:12:55.267Z,91.20
2022-12-20T10:15:41.328Z,90.87
2022-12-20T10:18:30.338Z,90.59
2022-12-20T10:21:36.897Z,90.40
2022-12-20T10:24:18.427Z,90.54
2022-12-20T10:26:49.149Z,90.61
2022-12-20T10:29:15.970Z,90.32
2022-12-20T10:31:43.115Z,90.21
2022-12-20T10:34:09.870Z,90.14
2022-12-20T10:36:37.573Z,89.95
2022-12-20T10:39:07.886Z,89.54
2022-12-20T10:41:40.441Z,89.28
2022-12-20T10:44:30.341Z,89.40
2022-12-20T10:46:59.584Z,89.30
2022-12-20T10:49:33.170Z,88.82
2022-12-20T10:52:08.760Z,88.61
2022-12-20T10:54:43.172Z,88.38
2022-12-20T10:57:30.105Z,88.00
2022-12-20T11:00:00.310Z,88.13
2022-12-20T11:02:40.723Z,87.91
2022-12-20T11:05:11.384Z,87.82
2022-12-20T11:08:17.302Z,87.79
2022-12-20T11:10:38.661Z,87.77
2022-12-20T11:13:06.375Z,87.64
2022-12-20T11:15:35.274Z,87.37
2022-12-20T11:18:24.299Z,87.02
2022-12-20T11:21:11.072Z,86.92
2022-12-20T11:24:06.440Z,86.60
2022-12-20T11:27:15.492Z,86.41
2022-12-20T11:30:04.127Z,86.40
2022-12-20T11:32:54.974Z,85.82
2022-12-20T11:35:40.486Z,85.62
2022-12-20T11:38:10.324Z,85.85
2022-12-20T11:41:23.759Z,85.75
2022-12-20T11:44:26.735Z,85.52
2022-12-20T11:47:22.165Z,85.52
2022-12-20T11:50:20.565Z,85.54
2022-12-20T11:52:56.239Z,85.58
2022-12-20T11:55:29.896Z,85.41
2022-12-20T11:58:18.954Z,85.43
2022-12-20T12:00:54.352Z,85.49
2022-12-20T12:03:31.452Z,85.16
2022-12-20T12:06:16.489Z,85.25
2022-12-20T12:08:50.475Z,84.84
2022-12-20T12:14:35.777Z,84.24
2022-12-20T12:17:10.465Z,84.16
2022-12-20T12:19:43.421Z,83.94
2022-12-20T12:22:16.867Z,83.91
2022-12-20T12:24:53.111Z,83.46
2022-12-20T12:27:25.549Z,83.32
2022-12-20T12:29:54.530Z,83.37
2022-12-20T12:32:47.104Z,83.00
2022-12-20T12:35:31.918Z,83.11
2022-12-20T12:38:26.613Z,82.87
2022-12-20T12:41:05.457Z,82.84
2022-12-20T12:43:41.012Z,82.58
2022-12-20T12:46:14.996Z,82.30
2022-12-20T12:48:56.785Z,82.29
2022-12-20T12:51:31.639Z,82.16
2022-12-20T12:54:04.452Z,81.84
2022-12-20T12:56:46.278Z,81.77
2022-12-20T12:59:13.434Z,81.71
2022-12-20T13:01:54.538Z,81.49
2022-12-20T13:04:21.354Z,81.43
2022-12-20T13:06:48.022Z,81.69
2022-12-20T13:09:22.763Z,81.12
2022-12-20T13:11:55.563Z,81.26
2022-12-20T13:14:29.462Z,81.13
2022-12-20T13:17:14.677Z,81.03
2022-12-20T13:19:53.638Z,80.54
2022-12-20T13:22:22.846Z,80.70
2022-12-20T13:24:58.108Z,80.45
2022-12-20T13:27:27.169Z,80.46
2022-12-20T13:29:59.262Z,80.01
2022-12-20T13:33:17.370Z,79.26
2022-12-20T13:35:58.981Z,79.39
2022-12-20T13:38:54.654Z,79.25
2022-12-20T13:41:35.791Z,79.16
2022-12-20T13:44:14.998Z,78.92
2022-12-20T13:46:47.477Z,79.10
2022-12-20T13:49:38.684Z,78.79
2022-12-20T13:52:11.401Z,78.79
2022-12-20T13:54:44.635Z,78.80
2022-12-20T13:57:41.853Z,78.50
2022-12-20T14:00:18.014Z,78.62
2022-12-20T14:02:45.588Z,78.55
2022-12-20T14:05:26.703Z,78.45
2022-12-20T14:07:58.733Z,78.21
2022-12-20T14:10:28.833Z,77.89
2022-12-20T14:12:56.791Z,77.76
2022-12-20T14:15:36.114Z,77.24
2022-12-20T14:18:18.123Z,76.74
2022-12-20T14:20:47.295Z,76.80
2022-12-20T14:23:22.116Z,76.72
2022-12-20T14:25:55.143Z,76.63
2022-12-20T14:28:31.197Z,76.60
2022-12-20T14:31:01.232Z,76.27
2022-12-20T14:33:38.096Z,76.13
2022-12-20T14:36:16.886Z,75.95
2022-12-20T14:38:46.921Z,76.08
2022-12-20T14:41:36.151Z,75.69
2022-12-20T14:44:21.808Z,75.54
2022-12-20T14:46:58.973Z,75.60
2022-12-20T14:49:31.834Z,75.74
2022-12-20T14:52:20.756Z,75.18
2022-12-20T14:55:08.364Z,75.52
2022-12-20T14:57:36.010Z,75.42
2022-12-20T15:00:14.718Z,75.27
2022-12-20T15:02:42.138Z,75.57
2022-12-20T15:05:33.970Z,75.73
2022-12-20T15:08:24.332Z,75.58
2022-12-20T15:10:53.966Z,75.67
2022-12-20T15:13:25.787Z,75.98
2022-12-20T15:15:52.715Z,75.78
2022-12-20T15:18:21.520Z,75.83
2022-12-20T15:21:05.364Z,75.67
2022-12-20T15:23:33.115Z,75.67
2022-12-20T15:25:59.901Z,75.96
2022-12-20T15:28:27.171Z,76.12
2022-12-20T15:30:55.578Z,75.95
2022-12-20T15:33:29.090Z,76.10
2022-12-20T15:35:56.580Z,76.30
2022-12-20T15:38:54.858Z,76.20
2022-12-20T15:41:29.151Z,75.93
2022-12-20T15:43:59.864Z,76.15
2022-12-20T15:46:27.388Z,76.18
2022-12-20T15:48:54.434Z,76.53
2022-12-20T15:51:31.564Z,76.64
2022-12-20T15:53:59.261Z,76.80
2022-12-20T15:56:27.274Z,76.63
2022-12-20T15:58:54.593Z,76.82
2022-12-20T16:01:29.615Z,76.78
2022-12-20T16:03:57.838Z,76.94
2022-12-20T16:06:24.583Z,77.11
2022-12-20T16:08:51.438Z,77.23
2022-12-20T16:11:29.275Z,77.50
2022-12-20T16:13:57.915Z,77.56
2022-12-20T16:16:35.774Z,77.36
2022-12-20T16:19:06.493Z,77.75
2022-12-20T16:21:36.192Z,77.41
2022-12-20T16:24:03.572Z,77.71
2022-12-20T16:26:30.386Z,77.69
2022-12-20T16:28:57.293Z,78.20
2022-12-20T16:31:33.165Z,78.14
2022-12-20T16:34:05.752Z,77.88
2022-12-20T16:36:32.600Z,77.91
2022-12-20T16:38:59.678Z,77.81
2022-12-20T16:41:30.226Z,78.06
2022-12-20T16:43:59.428Z,78.17
2022-12-20T16:46:29.176Z,78.06
2022-12-20T16:48:58.684Z,78.01
2022-12-20T16:51:28.426Z,77.80
2022-12-20T16:54:19.506Z,77.83
2022-12-20T16:56:47.730Z,77.57
2022-12-20T16:59:23.232Z,77.57
2022-12-20T17:01:53.219Z,77.85
2022-12-20T17:04:22.104Z,77.62
2022-12-20T17:06:50.407Z,78.04
2022-12-20T17:12:05.186Z,77.88
2022-12-20T17:14:31.880Z,77.75
2022-12-20T17:16:59.834Z,77.67
2022-12-20T17:19:26.623Z,77.76
2022-12-20T17:24:37.914Z,77.82
2022-12-20T17:27:04.942Z,77.78
2022-12-20T17:29:32.708Z,77.84
2022-12-20T17:31:59.539Z,77.62
2022-12-20T17:34:28.678Z,77.70
2022-12-20T17:36:57.320Z,77.62
2022-12-20T17:39:25.554Z,77.84
2022-12-20T17:41:54.092Z,77.86
2022-12-20T17:44:26.304Z,77.53
2022-12-20T17:46:53.783Z,77.59
2022-12-20T17:49:21.246Z,77.95
2022-12-20T17:51:48.006Z,77.63
2022-12-20T17:54:20.865Z,78.27
2022-12-20T17:56:48.184Z,78.15
2022-12-20T17:59:14.948Z,77.90
2022-12-20T18:01:43.157Z,78.27
2022-12-20T18:04:13.410Z,78.29
2022-12-20T18:06:42.174Z,78.24
2022-12-20T18:09:20.376Z,78.12
2022-12-20T18:11:48.097Z,78.27
2022-12-20T18:14:15.455Z,78.37
2022-12-20T18:16:42.712Z,78.43
2022-12-20T18:19:16.157Z,78.22
2022-12-20T18:21:43.750Z,78.46
2022-12-20T18:24:15.964Z,78.36
2022-12-20T18:26:43.525Z,78.40
2022-12-20T18:29:10.836Z,78.81
2022-12-20T18:31:38.224Z,78.88
2022-12-20T18:34:05.118Z,78.92
2022-12-20T18:36:35.880Z,78.81
2022-12-20T18:39:05.681Z,78.77
2022-12-20T18:41:32.859Z,79.12
2022-12-20T18:44:01.752Z,78.93
2022-12-20T18:46:29.862Z,79.24
2022-12-20T18:48:58.930Z,79.32
2022-12-20T18:51:28.627Z,79.05
2022-12-20T18:53:57.309Z,79.03
2022-12-20T18:56:27.101Z,79.06
2022-12-20T18:58:53.725Z,79.34
2022-12-20T19:01:24.342Z,79.13
2022-12-20T19:03:51.979Z,79.18
2022-12-20T19:06:19.852Z,79.54
2022-12-20T19:08:47.469Z,79.25
2022-12-20T19:11:17.038Z,79.41
2022-12-20T19:13:45.258Z,79.28
2022-12-20T19:16:15.691Z,79.48
2022-12-20T19:18:43.460Z,79.30
2022-12-20T19:21:10.032Z,79.18
2022-12-20T19:23:38.661Z,79.04
2022-12-20T19:26:08.124Z,79.15
2022-12-20T19:28:35.889Z,79.28
2022-12-20T19:31:21.060Z,79.01
2022-12-20T19:33:48.636Z,79.14
2022-12-20T19:36:16.578Z,78.87
2022-12-20T19:38:47.626Z,78.84
2022-12-20T19:41:14.763Z,79.12
2022-12-20T19:43:42.161Z,79.15
2022-12-20T19:46:12.314Z,78.85
2022-12-20T19:48:39.116Z,79.06
2022-12-20T19:51:10.272Z,78.80
2022-12-20T19:53:40.803Z,78.80
2022-12-20T19:56:08.754Z,78.95
2022-12-20T19:58:36.611Z,78.85
2022-12-20T20:01:08.448Z,78.90
2022-12-20T20:03:36.751Z,78.93
2022-12-20T20:06:04.843Z,78.72
2022-12-20T20:08:32.603Z,79.27
2022-12-20T20:11:05.336Z,79.20
2022-12-20T20:13:35.777Z,79.00
2022-12-20T20:16:03.948Z,78.94
2022-12-20T20:18:36.280Z,78.87
2022-12-20T20:21:13.648Z,78.91
2022-12-20T20:23:40.376Z,78.96
2022-12-20T20:26:13.836Z,79.01
2022-12-20T20:28:44.934Z,79.19
2022-12-20T20:31:14.707Z,78.81
2022-12-20T20:33:42.288Z,79.11
2022-12-20T20:36:13.329Z,79.14
2022-12-20T20:38:42.558Z,79.09
2022-12-20T20:41:10.101Z,78.97
2022-12-20T20:43:38.275Z,78.81
2022-12-20T20:46:07.591Z,78.87
2022-12-20T20:48:35.371Z,78.77
2022-12-20T20:51:02.190Z,78.67
2022-12-20T20:53:33.447Z,78.82
2022-12-20T20:56:05.054Z,78.80
2022-12-20T20:58:32.909Z,78.84
2022-12-20T21:01:01.546Z,78.82
2022-12-20T21:03:29.984Z,78.51
2022-12-20T21:08:43.855Z,78.45
2022-12-20T21:11:11.048Z,78.74
2022-12-20T21:13:38.660Z,78.88
2022-12-20T21:16:12.518Z,78.70
2022-12-20T21:18:40.037Z,78.93
2022-12-20T21:21:08.855Z,78.87
2022-12-20T21:23:35.600Z,79.00
2022-12-20T21:26:03.628Z,79.07
2022-12-20T21:28:31.641Z,79.07
2022-12-20T21:31:00.289Z,78.93
2022-12-20T21:33:27.403Z,79.07
2022-12-20T21:36:05.451Z,78.99
2022-12-20T21:38:32.403Z,78.85
2022-12-20T21:41:04.491Z,79.08
2022-12-20T21:43:32.489Z,78.84
2022-12-20T21:46:00.840Z,78.89
2022-12-20T21:48:27.704Z,79.00
2022-12-20T21:51:11.958Z,78.92
2022-12-20T21:53:44.894Z,79.09
2022-12-20T21:56:12.823Z,78.99
2022-12-20T21:58:39.954Z,78.97
2022-12-20T22:01:08.313Z,79.15
2022-12-20T22:03:36.050Z,79.25
2022-12-20T22:06:03.563Z,79.28
2022-12-20T22:08:31.821Z,79.41
2022-12-20T22:11:12.909Z,79.44
2022-12-20T22:13:41.987Z,79.78
2022-12-20T22:16:10.795Z,79.51
2022-12-20T22:18:39.185Z,79.68
2022-12-20T22:21:07.653Z,79.79
2022-12-20T22:23:34.365Z,79.53
2022-12-20T22:26:06.845Z,79.65
2022-12-20T22:28:34.055Z,79.81
2022-12-20T22:31:00.813Z,79.76
2022-12-20T22:33:33.291Z,79.78
2022-12-20T22:36:00.862Z,79.94
2022-12-20T22:38:28.498Z,80.12
2022-12-20T22:40:58.920Z,80.20
2022-12-20T22:43:26.123Z,80.16
2022-12-20T22:45:57.444Z,80.06
2022-12-20T22:48:45.558Z,79.89
2022-12-20T22:51:20.642Z,79.93
2022-12-20T22:53:48.062Z,80.14
2022-12-20T22:56:16.306Z,79.98
2022-12-20T22:58:43.125Z,80.10
2022-12-20T23:01:12.606Z,79.96
2022-12-20T23:03:39.660Z,80.31
2022-12-20T23:06:08.715Z,80.30
2022-12-20T23:08:36.884Z,80.52
2022-12-20T23:11:25.467Z,80.60
2022-12-20T23:14:10.909Z,80.61
2022-12-20T23:16:38.180Z,80.75
2022-12-20T23:19:04.929Z,80.76
2022-12-20T23:21:50.680Z,80.83
2022-12-20T23:24:17.552Z,80.89
2022-12-20T23:26:44.491Z,80.87
2022-12-20T23:29:14.207Z,81.09
2022-12-20T23:31:41.088Z,81.56
2022-12-20T23:34:08.170Z,81.39
2022-12-20T23:36:34.893Z,81.86
2022-12-20T23:39:01.897Z,81.92
2022-12-20T23:41:28.798Z,82.09
2022-12-20T23:43:56.187Z,82.35
2022-12-20T23:46:23.771Z,82.44
2022-12-20T23:48:51.925Z,82.70
2022-12-20T23:51:19.428Z,83.01
2022-12-20T23:53:46.083Z,83.15
2022-12-20T23:56:17.817Z,83.23
2022-12-20T23:58:46.084Z,83.40
